sensor_id;sensor_type;location;lat;lon;timestamp;P1;durP1;ratioP1;P2;durP2;ratioP2
65835;SDS011;52595;51.608;7.216;2023-04-24T00:02:09;0.80;;;0.80;;
65835;SDS011;52595;51.608;7.216;2023-04-24T00:04:36;2.10;;;1.00;;
65835;SDS011;52595;51.608;7.216;2023-04-24T00:07:05;1.63;;;1.13;;
65835;SDS011;52595;51.608;7.216;2023-04-24T00:09:31;0.70;;;0.70;;
65835;SDS011;52595;51.608;7.216;2023-04-24T00:11:57;0.88;;;0.88;;
65835;SDS011;52595;51.608;7.216;2023-04-24T00:14:22;1.88;;;1.10;;
65835;SDS011;52595;51.608;7.216;2023-04-24T00:16:48;1.38;;;1.08;;
65835;SDS011;52595;51.608;7.216;2023-04-24T00:19:14;0.88;;;0.82;;
65835;SDS011;52595;51.608;7.216;2023-04-24T00:21:39;1.85;;;1.00;;
65835;SDS011;52595;51.608;7.216;2023-04-24T00:24:06;2.35;;;1.00;;
65835;SDS011;52595;51.608;7.216;2023-04-24T00:26:33;1.27;;;1.10;;
65835;SDS011;52595;51.608;7.216;2023-04-24T00:28:59;1.95;;;0.95;;
65835;SDS011;52595;51.608;7.216;2023-04-24T00:31:24;1.65;;;1.10;;
65835;SDS011;52595;51.608;7.216;2023-04-24T00:33:50;3.35;;;1.10;;
65835;SDS011;52595;51.608;7.216;2023-04-24T00:36:16;1.45;;;1.08;;
65835;SDS011;52595;51.608;7.216;2023-04-24T00:38:41;1.98;;;1.20;;
65835;SDS011;52595;51.608;7.216;2023-04-24T00:41:06;2.05;;;1.10;;
65835;SDS011;52595;51.608;7.216;2023-04-24T00:43:32;1.15;;;1.10;;
65835;SDS011;52595;51.608;7.216;2023-04-24T00:45:57;1.33;;;1.23;;
65835;SDS011;52595;51.608;7.216;2023-04-24T00:48:24;1.77;;;1.08;;
65835;SDS011;52595;51.608;7.216;2023-04-24T00:50:50;2.35;;;1.38;;
65835;SDS011;52595;51.608;7.216;2023-04-24T00:53:16;2.08;;;1.30;;
65835;SDS011;52595;51.608;7.216;2023-04-24T00:55:41;2.92;;;1.30;;
65835;SDS011;52595;51.608;7.216;2023-04-24T00:58:06;1.60;;;1.25;;
65835;SDS011;52595;51.608;7.216;2023-04-24T01:00:32;1.70;;;1.20;;
65835;SDS011;52595;51.608;7.216;2023-04-24T01:02:59;2.55;;;1.27;;
65835;SDS011;52595;51.608;7.216;2023-04-24T01:05:26;1.38;;;1.20;;
65835;SDS011;52595;51.608;7.216;2023-04-24T01:07:52;3.40;;;1.40;;
65835;SDS011;52595;51.608;7.216;2023-04-24T01:10:17;1.63;;;1.20;;
65835;SDS011;52595;51.608;7.216;2023-04-24T01:12:45;3.00;;;1.38;;
65835;SDS011;52595;51.608;7.216;2023-04-24T01:15:11;2.22;;;1.45;;
65835;SDS011;52595;51.608;7.216;2023-04-24T01:17:36;3.17;;;1.40;;
65835;SDS011;52595;51.608;7.216;2023-04-24T01:20:03;2.22;;;1.42;;
65835;SDS011;52595;51.608;7.216;2023-04-24T01:22:30;1.77;;;1.58;;
65835;SDS011;52595;51.608;7.216;2023-04-24T01:24:56;1.98;;;1.40;;
65835;SDS011;52595;51.608;7.216;2023-04-24T01:27:21;1.90;;;1.50;;
65835;SDS011;52595;51.608;7.216;2023-04-24T01:29:47;2.35;;;1.50;;
65835;SDS011;52595;51.608;7.216;2023-04-24T01:32:14;1.75;;;1.40;;
65835;SDS011;52595;51.608;7.216;2023-04-24T01:34:40;2.38;;;1.50;;
65835;SDS011;52595;51.608;7.216;2023-04-24T01:37:05;2.25;;;1.70;;
65835;SDS011;52595;51.608;7.216;2023-04-24T01:39:31;5.50;;;2.10;;
65835;SDS011;52595;51.608;7.216;2023-04-24T01:41:58;2.47;;;1.65;;
65835;SDS011;52595;51.608;7.216;2023-04-24T01:44:25;3.35;;;2.10;;
65835;SDS011;52595;51.608;7.216;2023-04-24T01:46:51;4.40;;;2.38;;
65835;SDS011;52595;51.608;7.216;2023-04-24T01:49:18;3.42;;;2.10;;
65835;SDS011;52595;51.608;7.216;2023-04-24T01:51:44;3.83;;;2.53;;
65835;SDS011;52595;51.608;7.216;2023-04-24T01:54:10;6.03;;;2.70;;
65835;SDS011;52595;51.608;7.216;2023-04-24T01:56:35;4.70;;;2.45;;
65835;SDS011;52595;51.608;7.216;2023-04-24T01:59:04;5.68;;;3.38;;
65835;SDS011;52595;51.608;7.216;2023-04-24T02:01:34;7.63;;;3.17;;
65835;SDS011;52595;51.608;7.216;2023-04-24T02:04:03;5.22;;;3.53;;
65835;SDS011;52595;51.608;7.216;2023-04-24T02:06:29;4.20;;;2.58;;
65835;SDS011;52595;51.608;7.216;2023-04-24T02:08:56;5.68;;;3.65;;
65835;SDS011;52595;51.608;7.216;2023-04-24T02:11:25;5.93;;;3.40;;
65835;SDS011;52595;51.608;7.216;2023-04-24T02:13:50;7.43;;;3.45;;
65835;SDS011;52595;51.608;7.216;2023-04-24T02:16:16;5.03;;;3.05;;
65835;SDS011;52595;51.608;7.216;2023-04-24T02:18:42;8.45;;;3.15;;
65835;SDS011;52595;51.608;7.216;2023-04-24T02:21:07;6.10;;;3.20;;
65835;SDS011;52595;51.608;7.216;2023-04-24T02:23:33;5.43;;;3.33;;
65835;SDS011;52595;51.608;7.216;2023-04-24T02:25:58;7.50;;;3.47;;
65835;SDS011;52595;51.608;7.216;2023-04-24T02:28:23;5.30;;;3.35;;
65835;SDS011;52595;51.608;7.216;2023-04-24T02:30:49;7.05;;;3.75;;
65835;SDS011;52595;51.608;7.216;2023-04-24T02:33:15;4.43;;;2.92;;
65835;SDS011;52595;51.608;7.216;2023-04-24T02:35:40;5.05;;;2.88;;
65835;SDS011;52595;51.608;7.216;2023-04-24T02:38:06;8.77;;;3.17;;
65835;SDS011;52595;51.608;7.216;2023-04-24T02:40:31;7.53;;;4.53;;
65835;SDS011;52595;51.608;7.216;2023-04-24T02:42:57;6.20;;;3.80;;
65835;SDS011;52595;51.608;7.216;2023-04-24T02:45:22;6.15;;;4.00;;
65835;SDS011;52595;51.608;7.216;2023-04-24T02:47:47;6.20;;;3.78;;
65835;SDS011;52595;51.608;7.216;2023-04-24T02:50:13;6.47;;;3.53;;
65835;SDS011;52595;51.608;7.216;2023-04-24T02:52:38;7.78;;;4.80;;
65835;SDS011;52595;51.608;7.216;2023-04-24T02:55:04;7.63;;;4.40;;
65835;SDS011;52595;51.608;7.216;2023-04-24T02:57:30;9.98;;;4.47;;
65835;SDS011;52595;51.608;7.216;2023-04-24T02:59:55;12.55;;;6.00;;
65835;SDS011;52595;51.608;7.216;2023-04-24T03:02:20;6.68;;;4.18;;
65835;SDS011;52595;51.608;7.216;2023-04-24T03:04:46;11.23;;;6.38;;
65835;SDS011;52595;51.608;7.216;2023-04-24T03:07:12;13.43;;;5.55;;
65835;SDS011;52595;51.608;7.216;2023-04-24T03:09:39;10.40;;;5.93;;
65835;SDS011;52595;51.608;7.216;2023-04-24T03:12:05;9.00;;;4.95;;
65835;SDS011;52595;51.608;7.216;2023-04-24T03:14:30;12.75;;;6.18;;
65835;SDS011;52595;51.608;7.216;2023-04-24T03:16:56;12.57;;;6.50;;
65835;SDS011;52595;51.608;7.216;2023-04-24T03:19:22;11.98;;;6.53;;
65835;SDS011;52595;51.608;7.216;2023-04-24T03:21:47;9.52;;;5.72;;
65835;SDS011;52595;51.608;7.216;2023-04-24T03:24:13;14.45;;;7.13;;
65835;SDS011;52595;51.608;7.216;2023-04-24T03:26:38;15.88;;;7.20;;
65835;SDS011;52595;51.608;7.216;2023-04-24T03:29:04;9.85;;;6.13;;
65835;SDS011;52595;51.608;7.216;2023-04-24T03:31:29;14.73;;;8.07;;
65835;SDS011;52595;51.608;7.216;2023-04-24T03:33:55;16.15;;;7.57;;
65835;SDS011;52595;51.608;7.216;2023-04-24T03:36:20;11.85;;;7.18;;
65835;SDS011;52595;51.608;7.216;2023-04-24T03:38:46;13.48;;;7.40;;
65835;SDS011;52595;51.608;7.216;2023-04-24T03:41:11;13.35;;;7.13;;
65835;SDS011;52595;51.608;7.216;2023-04-24T03:43:38;12.10;;;6.97;;
65835;SDS011;52595;51.608;7.216;2023-04-24T03:46:04;11.30;;;6.97;;
65835;SDS011;52595;51.608;7.216;2023-04-24T03:48:29;13.43;;;7.70;;
65835;SDS011;52595;51.608;7.216;2023-04-24T03:50:55;15.15;;;8.38;;
65835;SDS011;52595;51.608;7.216;2023-04-24T03:53:20;11.50;;;6.78;;
65835;SDS011;52595;51.608;7.216;2023-04-24T03:55:46;15.23;;;8.40;;
65835;SDS011;52595;51.608;7.216;2023-04-24T03:58:11;16.67;;;8.68;;
65835;SDS011;52595;51.608;7.216;2023-04-24T04:00:38;13.20;;;8.18;;
65835;SDS011;52595;51.608;7.216;2023-04-24T04:03:05;12.32;;;7.20;;
65835;SDS011;52595;51.608;7.216;2023-04-24T04:05:30;14.98;;;7.63;;
65835;SDS011;52595;51.608;7.216;2023-04-24T04:07:56;16.10;;;9.13;;
65835;SDS011;52595;51.608;7.216;2023-04-24T04:10:21;14.00;;;8.50;;
65835;SDS011;52595;51.608;7.216;2023-04-24T04:12:47;13.55;;;7.25;;
65835;SDS011;52595;51.608;7.216;2023-04-24T04:15:12;14.27;;;8.05;;
65835;SDS011;52595;51.608;7.216;2023-04-24T04:17:38;11.80;;;6.93;;
65835;SDS011;52595;51.608;7.216;2023-04-24T04:20:03;14.10;;;6.82;;
65835;SDS011;52595;51.608;7.216;2023-04-24T04:22:34;17.95;;;7.95;;
65835;SDS011;52595;51.608;7.216;2023-04-24T04:24:59;14.55;;;7.43;;
65835;SDS011;52595;51.608;7.216;2023-04-24T04:27:25;14.45;;;8.40;;
65835;SDS011;52595;51.608;7.216;2023-04-24T04:29:51;15.43;;;8.57;;
65835;SDS011;52595;51.608;7.216;2023-04-24T04:32:17;12.82;;;7.55;;
65835;SDS011;52595;51.608;7.216;2023-04-24T04:34:43;18.23;;;9.35;;
65835;SDS011;52595;51.608;7.216;2023-04-24T04:37:10;15.40;;;8.25;;
65835;SDS011;52595;51.608;7.216;2023-04-24T04:39:37;11.48;;;6.85;;
65835;SDS011;52595;51.608;7.216;2023-04-24T04:42:03;12.38;;;7.28;;
65835;SDS011;52595;51.608;7.216;2023-04-24T04:44:28;14.60;;;6.53;;
65835;SDS011;52595;51.608;7.216;2023-04-24T04:46:55;19.77;;;7.63;;
65835;SDS011;52595;51.608;7.216;2023-04-24T04:49:21;19.33;;;8.73;;
65835;SDS011;52595;51.608;7.216;2023-04-24T04:51:48;17.35;;;8.57;;
65835;SDS011;52595;51.608;7.216;2023-04-24T04:54:14;14.10;;;8.50;;
65835;SDS011;52595;51.608;7.216;2023-04-24T04:56:40;12.45;;;6.60;;
65835;SDS011;52595;51.608;7.216;2023-04-24T04:59:06;10.13;;;6.55;;
65835;SDS011;52595;51.608;7.216;2023-04-24T05:01:31;16.65;;;8.48;;
65835;SDS011;52595;51.608;7.216;2023-04-24T05:03:57;12.07;;;7.88;;
65835;SDS011;52595;51.608;7.216;2023-04-24T05:06:22;14.25;;;7.55;;
65835;SDS011;52595;51.608;7.216;2023-04-24T05:08:47;13.25;;;6.88;;
65835;SDS011;52595;51.608;7.216;2023-04-24T05:11:13;14.05;;;6.82;;
65835;SDS011;52595;51.608;7.216;2023-04-24T05:13:39;13.02;;;6.53;;
65835;SDS011;52595;51.608;7.216;2023-04-24T05:16:05;10.88;;;6.55;;
65835;SDS011;52595;51.608;7.216;2023-04-24T05:18:30;12.48;;;8.13;;
65835;SDS011;52595;51.608;7.216;2023-04-24T05:20:56;15.05;;;8.18;;
65835;SDS011;52595;51.608;7.216;2023-04-24T05:23:21;13.85;;;6.93;;
65835;SDS011;52595;51.608;7.216;2023-04-24T05:25:47;11.82;;;7.28;;
65835;SDS011;52595;51.608;7.216;2023-04-24T05:28:12;11.27;;;6.00;;
65835;SDS011;52595;51.608;7.216;2023-04-24T05:30:37;9.65;;;5.20;;
65835;SDS011;52595;51.608;7.216;2023-04-24T05:33:03;10.23;;;5.72;;
65835;SDS011;52595;51.608;7.216;2023-04-24T05:35:28;11.48;;;6.57;;
65835;SDS011;52595;51.608;7.216;2023-04-24T05:37:54;13.93;;;7.40;;
65835;SDS011;52595;51.608;7.216;2023-04-24T05:40:19;11.50;;;6.03;;
65835;SDS011;52595;51.608;7.216;2023-04-24T05:42:45;9.43;;;5.95;;
65835;SDS011;52595;51.608;7.216;2023-04-24T05:45:10;9.15;;;5.97;;
65835;SDS011;52595;51.608;7.216;2023-04-24T05:47:41;9.23;;;5.90;;
65835;SDS011;52595;51.608;7.216;2023-04-24T05:50:07;10.57;;;6.43;;
65835;SDS011;52595;51.608;7.216;2023-04-24T05:52:32;9.02;;;5.25;;
65835;SDS011;52595;51.608;7.216;2023-04-24T05:54:58;9.65;;;5.35;;
65835;SDS011;52595;51.608;7.216;2023-04-24T05:57:23;10.07;;;5.32;;
65835;SDS011;52595;51.608;7.216;2023-04-24T05:59:49;9.05;;;5.45;;
65835;SDS011;52595;51.608;7.216;2023-04-24T06:02:15;8.60;;;5.13;;
65835;SDS011;52595;51.608;7.216;2023-04-24T06:04:40;9.55;;;5.25;;
65835;SDS011;52595;51.608;7.216;2023-04-24T06:07:06;11.20;;;5.63;;
65835;SDS011;52595;51.608;7.216;2023-04-24T06:09:32;13.02;;;7.43;;
65835;SDS011;52595;51.608;7.216;2023-04-24T06:11:57;10.25;;;5.55;;
65835;SDS011;52595;51.608;7.216;2023-04-24T06:14:23;14.82;;;7.57;;
65835;SDS011;52595;51.608;7.216;2023-04-24T06:16:48;11.85;;;6.75;;
65835;SDS011;52595;51.608;7.216;2023-04-24T06:19:14;12.20;;;7.35;;
65835;SDS011;52595;51.608;7.216;2023-04-24T06:21:40;10.25;;;6.00;;
65835;SDS011;52595;51.608;7.216;2023-04-24T06:24:05;13.65;;;7.63;;
65835;SDS011;52595;51.608;7.216;2023-04-24T06:26:31;12.43;;;7.20;;
65835;SDS011;52595;51.608;7.216;2023-04-24T06:28:56;9.20;;;5.70;;
65835;SDS011;52595;51.608;7.216;2023-04-24T06:31:24;12.55;;;7.22;;
65835;SDS011;52595;51.608;7.216;2023-04-24T06:33:49;14.07;;;5.60;;
65835;SDS011;52595;51.608;7.216;2023-04-24T06:36:15;11.18;;;7.00;;
65835;SDS011;52595;51.608;7.216;2023-04-24T06:38:40;9.27;;;5.15;;
65835;SDS011;52595;51.608;7.216;2023-04-24T06:41:06;9.60;;;6.15;;
65835;SDS011;52595;51.608;7.216;2023-04-24T06:43:32;12.93;;;6.35;;
65835;SDS011;52595;51.608;7.216;2023-04-24T06:45:57;10.68;;;6.22;;
65835;SDS011;52595;51.608;7.216;2023-04-24T06:48:24;8.15;;;4.70;;
65835;SDS011;52595;51.608;7.216;2023-04-24T06:50:50;9.73;;;5.78;;
65835;SDS011;52595;51.608;7.216;2023-04-24T06:53:15;9.20;;;5.78;;
65835;SDS011;52595;51.608;7.216;2023-04-24T06:55:41;9.88;;;5.32;;
65835;SDS011;52595;51.608;7.216;2023-04-24T06:58:08;8.57;;;5.57;;
65835;SDS011;52595;51.608;7.216;2023-04-24T07:00:33;11.30;;;6.35;;
65835;SDS011;52595;51.608;7.216;2023-04-24T07:02:59;10.80;;;6.13;;
65835;SDS011;52595;51.608;7.216;2023-04-24T07:05:25;13.35;;;7.13;;
65835;SDS011;52595;51.608;7.216;2023-04-24T07:07:50;12.57;;;7.10;;
65835;SDS011;52595;51.608;7.216;2023-04-24T07:10:16;9.82;;;6.40;;
65835;SDS011;52595;51.608;7.216;2023-04-24T07:12:42;9.52;;;6.10;;
65835;SDS011;52595;51.608;7.216;2023-04-24T07:15:07;11.60;;;6.53;;
65835;SDS011;52595;51.608;7.216;2023-04-24T07:17:33;9.40;;;6.15;;
65835;SDS011;52595;51.608;7.216;2023-04-24T07:19:59;11.45;;;5.60;;
65835;SDS011;52595;51.608;7.216;2023-04-24T07:22:25;9.32;;;5.65;;
65835;SDS011;52595;51.608;7.216;2023-04-24T07:24:50;8.93;;;5.55;;
65835;SDS011;52595;51.608;7.216;2023-04-24T07:27:16;9.48;;;4.47;;
65835;SDS011;52595;51.608;7.216;2023-04-24T07:29:41;6.88;;;4.30;;
65835;SDS011;52595;51.608;7.216;2023-04-24T07:32:07;7.10;;;4.50;;
65835;SDS011;52595;51.608;7.216;2023-04-24T07:34:33;6.95;;;4.30;;
65835;SDS011;52595;51.608;7.216;2023-04-24T07:36:58;5.30;;;3.55;;
65835;SDS011;52595;51.608;7.216;2023-04-24T07:39:24;6.00;;;3.83;;
65835;SDS011;52595;51.608;7.216;2023-04-24T07:41:50;5.88;;;3.42;;
65835;SDS011;52595;51.608;7.216;2023-04-24T07:44:15;7.95;;;4.43;;
65835;SDS011;52595;51.608;7.216;2023-04-24T07:46:40;6.95;;;4.18;;
65835;SDS011;52595;51.608;7.216;2023-04-24T07:49:06;4.05;;;2.90;;
65835;SDS011;52595;51.608;7.216;2023-04-24T07:51:31;4.85;;;2.72;;
65835;SDS011;52595;51.608;7.216;2023-04-24T07:53:59;5.20;;;3.38;;
65835;SDS011;52595;51.608;7.216;2023-04-24T07:56:25;5.35;;;3.25;;
65835;SDS011;52595;51.608;7.216;2023-04-24T07:58:50;4.30;;;2.30;;
65835;SDS011;52595;51.608;7.216;2023-04-24T08:01:16;4.47;;;2.22;;
65835;SDS011;52595;51.608;7.216;2023-04-24T08:03:41;6.60;;;3.03;;
65835;SDS011;52595;51.608;7.216;2023-04-24T08:06:06;4.63;;;3.17;;
65835;SDS011;52595;51.608;7.216;2023-04-24T08:08:32;2.75;;;2.08;;
65835;SDS011;52595;51.608;7.216;2023-04-24T08:10:57;3.00;;;1.95;;
65835;SDS011;52595;51.608;7.216;2023-04-24T08:13:23;3.25;;;2.10;;
65835;SDS011;52595;51.608;7.216;2023-04-24T08:15:48;3.85;;;2.35;;
65835;SDS011;52595;51.608;7.216;2023-04-24T08:18:14;5.00;;;2.58;;
65835;SDS011;52595;51.608;7.216;2023-04-24T08:20:40;3.25;;;2.22;;
65835;SDS011;52595;51.608;7.216;2023-04-24T08:23:06;3.25;;;2.15;;
65835;SDS011;52595;51.608;7.216;2023-04-24T08:25:31;2.83;;;2.03;;
65835;SDS011;52595;51.608;7.216;2023-04-24T08:27:57;2.97;;;2.15;;
65835;SDS011;52595;51.608;7.216;2023-04-24T08:30:22;4.35;;;2.60;;
65835;SDS011;52595;51.608;7.216;2023-04-24T08:32:48;3.90;;;2.28;;
65835;SDS011;52595;51.608;7.216;2023-04-24T08:35:13;2.58;;;1.75;;
65835;SDS011;52595;51.608;7.216;2023-04-24T08:37:39;3.13;;;1.70;;
65835;SDS011;52595;51.608;7.216;2023-04-24T08:40:14;2.65;;;1.80;;
65835;SDS011;52595;51.608;7.216;2023-04-24T08:42:43;3.60;;;2.35;;
65835;SDS011;52595;51.608;7.216;2023-04-24T08:45:10;3.45;;;2.25;;
65835;SDS011;52595;51.608;7.216;2023-04-24T08:47:37;5.45;;;2.00;;
65835;SDS011;52595;51.608;7.216;2023-04-24T08:50:03;4.15;;;2.70;;
65835;SDS011;52595;51.608;7.216;2023-04-24T08:52:31;3.25;;;2.28;;
65835;SDS011;52595;51.608;7.216;2023-04-24T08:54:58;4.32;;;2.17;;
65835;SDS011;52595;51.608;7.216;2023-04-24T08:57:25;3.90;;;2.70;;
65835;SDS011;52595;51.608;7.216;2023-04-24T08:59:51;5.40;;;3.28;;
65835;SDS011;52595;51.608;7.216;2023-04-24T09:02:18;5.18;;;3.60;;
65835;SDS011;52595;51.608;7.216;2023-04-24T09:04:44;7.10;;;3.40;;
65835;SDS011;52595;51.608;7.216;2023-04-24T09:07:10;5.38;;;3.65;;
65835;SDS011;52595;51.608;7.216;2023-04-24T09:09:39;7.35;;;4.75;;
65835;SDS011;52595;51.608;7.216;2023-04-24T09:12:06;7.60;;;4.78;;
65835;SDS011;52595;51.608;7.216;2023-04-24T09:14:34;7.65;;;5.07;;
65835;SDS011;52595;51.608;7.216;2023-04-24T09:17:01;6.65;;;4.35;;
65835;SDS011;52595;51.608;7.216;2023-04-24T09:19:27;8.15;;;5.00;;
65835;SDS011;52595;51.608;7.216;2023-04-24T09:21:52;6.90;;;4.03;;
65835;SDS011;52595;51.608;7.216;2023-04-24T09:24:19;9.93;;;5.53;;
65835;SDS011;52595;51.608;7.216;2023-04-24T09:26:47;4.63;;;3.15;;
65835;SDS011;52595;51.608;7.216;2023-04-24T09:29:17;9.48;;;5.88;;
65835;SDS011;52595;51.608;7.216;2023-04-24T09:31:44;8.77;;;5.60;;
65835;SDS011;52595;51.608;7.216;2023-04-24T09:34:10;7.22;;;5.10;;
65835;SDS011;52595;51.608;7.216;2023-04-24T09:36:37;4.70;;;3.20;;
65835;SDS011;52595;51.608;7.216;2023-04-24T09:39:04;5.60;;;3.50;;
65835;SDS011;52595;51.608;7.216;2023-04-24T09:41:33;5.05;;;2.90;;
65835;SDS011;52595;51.608;7.216;2023-04-24T09:44:10;6.57;;;3.67;;
65835;SDS011;52595;51.608;7.216;2023-04-24T09:46:40;6.75;;;4.22;;
65835;SDS011;52595;51.608;7.216;2023-04-24T09:49:13;5.30;;;3.35;;
65835;SDS011;52595;51.608;7.216;2023-04-24T09:51:40;4.38;;;2.83;;
65835;SDS011;52595;51.608;7.216;2023-04-24T09:54:13;3.45;;;2.40;;
65835;SDS011;52595;51.608;7.216;2023-04-24T09:56:43;3.22;;;2.00;;
65835;SDS011;52595;51.608;7.216;2023-04-24T09:59:10;1.73;;;1.60;;
65835;SDS011;52595;51.608;7.216;2023-04-24T10:01:36;2.70;;;2.05;;
65835;SDS011;52595;51.608;7.216;2023-04-24T10:04:03;3.45;;;2.15;;
65835;SDS011;52595;51.608;7.216;2023-04-24T10:06:35;3.92;;;2.20;;
65835;SDS011;52595;51.608;7.216;2023-04-24T10:09:01;6.03;;;3.22;;
65835;SDS011;52595;51.608;7.216;2023-04-24T10:11:28;5.40;;;3.47;;
65835;SDS011;52595;51.608;7.216;2023-04-24T10:13:55;5.82;;;3.42;;
65835;SDS011;52595;51.608;7.216;2023-04-24T10:16:22;8.48;;;4.15;;
65835;SDS011;52595;51.608;7.216;2023-04-24T10:18:48;6.88;;;4.38;;
65835;SDS011;52595;51.608;7.216;2023-04-24T10:21:14;6.85;;;4.05;;
65835;SDS011;52595;51.608;7.216;2023-04-24T10:23:40;5.97;;;3.03;;
65835;SDS011;52595;51.608;7.216;2023-04-24T10:26:06;6.50;;;4.05;;
65835;SDS011;52595;51.608;7.216;2023-04-24T10:28:35;6.85;;;3.85;;
65835;SDS011;52595;51.608;7.216;2023-04-24T10:31:01;7.28;;;4.40;;
65835;SDS011;52595;51.608;7.216;2023-04-24T10:33:27;6.55;;;3.42;;
65835;SDS011;52595;51.608;7.216;2023-04-24T10:35:55;7.40;;;3.95;;
65835;SDS011;52595;51.608;7.216;2023-04-24T10:38:24;8.07;;;4.05;;
65835;SDS011;52595;51.608;7.216;2023-04-24T10:40:51;7.82;;;4.20;;
65835;SDS011;52595;51.608;7.216;2023-04-24T10:46:06;10.93;;;6.32;;
65835;SDS011;52595;51.608;7.216;2023-04-24T10:48:33;10.40;;;5.07;;
65835;SDS011;52595;51.608;7.216;2023-04-24T10:50:58;10.00;;;5.60;;
65835;SDS011;52595;51.608;7.216;2023-04-24T10:53:25;10.00;;;5.38;;
65835;SDS011;52595;51.608;7.216;2023-04-24T11:01:26;11.27;;;5.68;;
65835;SDS011;52595;51.608;7.216;2023-04-24T11:03:57;8.27;;;4.70;;
65835;SDS011;52595;51.608;7.216;2023-04-24T11:06:28;12.32;;;5.20;;
65835;SDS011;52595;51.608;7.216;2023-04-24T11:09:08;9.40;;;3.92;;
65835;SDS011;52595;51.608;7.216;2023-04-24T11:11:37;9.77;;;4.20;;
65835;SDS011;52595;51.608;7.216;2023-04-24T11:14:09;12.63;;;4.75;;
65835;SDS011;52595;51.608;7.216;2023-04-24T11:16:45;13.18;;;5.60;;
65835;SDS011;52595;51.608;7.216;2023-04-24T11:19:24;20.17;;;5.00;;
65835;SDS011;52595;51.608;7.216;2023-04-24T11:24:33;15.30;;;5.10;;
65835;SDS011;52595;51.608;7.216;2023-04-24T11:35:16;14.48;;;6.10;;
65835;SDS011;52595;51.608;7.216;2023-04-24T11:37:45;11.75;;;6.50;;
65835;SDS011;52595;51.608;7.216;2023-04-24T11:40:14;15.43;;;5.60;;
65835;SDS011;52595;51.608;7.216;2023-04-24T11:42:41;16.63;;;6.38;;
65835;SDS011;52595;51.608;7.216;2023-04-24T11:45:11;12.83;;;4.87;;
65835;SDS011;52595;51.608;7.216;2023-04-24T11:47:41;12.38;;;5.65;;
65835;SDS011;52595;51.608;7.216;2023-04-24T11:50:08;17.10;;;5.55;;
65835;SDS011;52595;51.608;7.216;2023-04-24T11:52:42;12.90;;;4.57;;
65835;SDS011;52595;51.608;7.216;2023-04-24T11:57:43;11.75;;;5.40;;
65835;SDS011;52595;51.608;7.216;2023-04-24T12:00:21;11.43;;;4.75;;
65835;SDS011;52595;51.608;7.216;2023-04-24T12:02:48;13.07;;;4.72;;
65835;SDS011;52595;51.608;7.216;2023-04-24T12:05:23;5.07;;;3.20;;
65835;SDS011;52595;51.608;7.216;2023-04-24T12:07:52;9.90;;;4.30;;
65835;SDS011;52595;51.608;7.216;2023-04-24T12:10:21;12.80;;;4.60;;
65835;SDS011;52595;51.608;7.216;2023-04-24T12:12:48;9.93;;;3.35;;
65835;SDS011;52595;51.608;7.216;2023-04-24T12:15:16;9.32;;;3.47;;
65835;SDS011;52595;51.608;7.216;2023-04-24T12:17:43;9.95;;;3.70;;
65835;SDS011;52595;51.608;7.216;2023-04-24T12:20:08;6.70;;;2.95;;
65835;SDS011;52595;51.608;7.216;2023-04-24T12:22:50;5.82;;;2.58;;
65835;SDS011;52595;51.608;7.216;2023-04-24T12:25:19;6.22;;;2.70;;
65835;SDS011;52595;51.608;7.216;2023-04-24T12:27:46;6.63;;;2.28;;
65835;SDS011;52595;51.608;7.216;2023-04-24T12:30:16;4.95;;;2.75;;
65835;SDS011;52595;51.608;7.216;2023-04-24T12:32:46;8.10;;;3.13;;
65835;SDS011;52595;51.608;7.216;2023-04-24T12:35:18;11.50;;;2.70;;
65835;SDS011;52595;51.608;7.216;2023-04-24T12:37:45;12.52;;;3.22;;
65835;SDS011;52595;51.608;7.216;2023-04-24T12:40:11;7.85;;;2.92;;
65835;SDS011;52595;51.608;7.216;2023-04-24T12:42:44;8.05;;;2.80;;
65835;SDS011;52595;51.608;7.216;2023-04-24T12:45:11;5.80;;;2.63;;
65835;SDS011;52595;51.608;7.216;2023-04-24T12:47:38;6.35;;;2.53;;
65835;SDS011;52595;51.608;7.216;2023-04-24T12:50:05;3.60;;;2.25;;
65835;SDS011;52595;51.608;7.216;2023-04-24T12:52:33;7.65;;;3.00;;
65835;SDS011;52595;51.608;7.216;2023-04-24T12:54:59;4.65;;;2.35;;
65835;SDS011;52595;51.608;7.216;2023-04-24T12:57:26;7.13;;;2.83;;
65835;SDS011;52595;51.608;7.216;2023-04-24T12:59:56;6.63;;;3.10;;
65835;SDS011;52595;51.608;7.216;2023-04-24T13:02:23;6.80;;;3.03;;
65835;SDS011;52595;51.608;7.216;2023-04-24T13:04:52;4.57;;;2.13;;
65835;SDS011;52595;51.608;7.216;2023-04-24T13:07:18;4.93;;;2.25;;
65835;SDS011;52595;51.608;7.216;2023-04-24T13:09:44;5.70;;;2.38;;
65835;SDS011;52595;51.608;7.216;2023-04-24T13:12:10;5.88;;;2.65;;
65835;SDS011;52595;51.608;7.216;2023-04-24T13:14:36;6.43;;;2.28;;
65835;SDS011;52595;51.608;7.216;2023-04-24T13:17:02;6.93;;;3.50;;
65835;SDS011;52595;51.608;7.216;2023-04-24T13:19:28;9.27;;;2.25;;
65835;SDS011;52595;51.608;7.216;2023-04-24T13:21:55;7.63;;;3.05;;
65835;SDS011;52595;51.608;7.216;2023-04-24T13:24:24;5.35;;;2.40;;
65835;SDS011;52595;51.608;7.216;2023-04-24T13:26:51;4.25;;;2.20;;
65835;SDS011;52595;51.608;7.216;2023-04-24T13:29:19;3.50;;;2.00;;
65835;SDS011;52595;51.608;7.216;2023-04-24T13:31:45;4.88;;;2.38;;
65835;SDS011;52595;51.608;7.216;2023-04-24T13:34:12;5.18;;;2.22;;
65835;SDS011;52595;51.608;7.216;2023-04-24T13:36:38;2.13;;;1.75;;
65835;SDS011;52595;51.608;7.216;2023-04-24T13:39:04;7.35;;;2.65;;
65835;SDS011;52595;51.608;7.216;2023-04-24T13:41:30;4.72;;;2.17;;
65835;SDS011;52595;51.608;7.216;2023-04-24T13:43:57;4.32;;;2.30;;
65835;SDS011;52595;51.608;7.216;2023-04-24T13:46:22;3.85;;;2.10;;
65835;SDS011;52595;51.608;7.216;2023-04-24T13:48:47;6.18;;;2.83;;
65835;SDS011;52595;51.608;7.216;2023-04-24T13:51:13;3.90;;;2.70;;
65835;SDS011;52595;51.608;7.216;2023-04-24T13:53:39;4.65;;;2.50;;
65835;SDS011;52595;51.608;7.216;2023-04-24T13:56:05;4.45;;;2.00;;
65835;SDS011;52595;51.608;7.216;2023-04-24T13:58:31;4.00;;;2.60;;
65835;SDS011;52595;51.608;7.216;2023-04-24T14:00:57;3.88;;;2.22;;
65835;SDS011;52595;51.608;7.216;2023-04-24T14:03:23;3.03;;;1.90;;
65835;SDS011;52595;51.608;7.216;2023-04-24T14:05:49;3.38;;;2.00;;
65835;SDS011;52595;51.608;7.216;2023-04-24T14:08:16;3.67;;;2.20;;
65835;SDS011;52595;51.608;7.216;2023-04-24T14:10:45;4.22;;;2.25;;
65835;SDS011;52595;51.608;7.216;2023-04-24T14:13:10;4.32;;;2.70;;
65835;SDS011;52595;51.608;7.216;2023-04-24T14:15:36;6.13;;;2.90;;
65835;SDS011;52595;51.608;7.216;2023-04-24T14:18:01;4.47;;;2.53;;
65835;SDS011;52595;51.608;7.216;2023-04-24T14:20:28;4.90;;;2.58;;
65835;SDS011;52595;51.608;7.216;2023-04-24T14:22:53;5.85;;;3.00;;
65835;SDS011;52595;51.608;7.216;2023-04-24T14:25:19;5.45;;;2.50;;
65835;SDS011;52595;51.608;7.216;2023-04-24T14:27:44;4.95;;;2.40;;
65835;SDS011;52595;51.608;7.216;2023-04-24T14:30:10;6.75;;;2.88;;
65835;SDS011;52595;51.608;7.216;2023-04-24T14:32:38;6.43;;;2.72;;
65835;SDS011;52595;51.608;7.216;2023-04-24T14:35:04;6.10;;;2.85;;
65835;SDS011;52595;51.608;7.216;2023-04-24T14:37:31;5.47;;;2.20;;
65835;SDS011;52595;51.608;7.216;2023-04-24T14:39:56;4.82;;;2.78;;
65835;SDS011;52595;51.608;7.216;2023-04-24T14:42:22;4.93;;;2.70;;
65835;SDS011;52595;51.608;7.216;2023-04-24T14:44:47;8.80;;;3.80;;
65835;SDS011;52595;51.608;7.216;2023-04-24T14:47:13;8.18;;;3.75;;
65835;SDS011;52595;51.608;7.216;2023-04-24T14:49:38;5.90;;;3.42;;
65835;SDS011;52595;51.608;7.216;2023-04-24T14:52:04;7.55;;;4.10;;
65835;SDS011;52595;51.608;7.216;2023-04-24T14:54:29;4.97;;;2.92;;
65835;SDS011;52595;51.608;7.216;2023-04-24T14:56:55;6.80;;;3.67;;
65835;SDS011;52595;51.608;7.216;2023-04-24T14:59:24;9.98;;;4.10;;
65835;SDS011;52595;51.608;7.216;2023-04-24T15:01:49;7.50;;;3.80;;